Time;durP1;ratioP1;P1;durP2;ratioP2;P2;SDS_P1;SDS_P2;PMS_P1;PMS_P2;Temp;Humidity;BMP_temperature;BMP_pressure;BME280_temperature;BME280_humidity;BME280_pressure;Samples;Min_cycle;Max_cycle;Signal;HPM_P1;HPM_P2
2021/08/19 09:13:35;;;;;;;3.13;0.60;;;16.10;56.40;;;;;;5014962;28;20061;-67
2021/08/19 09:16:22;;;;;;;2.13;0.85;;;16.10;56.40;;;;;;5007417;28;20448;-69
2021/08/19 09:18:49;;;;;;;0.95;0.30;;;16.10;55.80;;;;;;5016976;28;20080;-67
2021/08/19 09:21:21;;;;;;;1.95;0.40;;;16.10;54.70;;;;;;5013563;28;20100;-67
2021/08/19 09:24:19;;;;;;;2.28;0.80;;;16.10;54.50;;;;;;5008225;28;20412;-66
2021/08/19 09:26:46;;;;;;;4.05;1.52;;;16.10;54.60;;;;;;5005203;28;20038;-68
2021/08/19 09:29:28;;;;;;;2.15;1.13;;;16.10;54.60;;;;;;5009167;28;20034;-67
2021/08/19 09:32:16;;;;;;;0.75;0.32;;;16.10;54.80;;;;;;5006384;28;20025;-67
2021/08/19 09:34:44;;;;;;;0.75;0.55;;;16.20;54.20;;;;;;5007436;28;20488;-69
2021/08/19 09:37:14;;;;;;;1.13;0.50;;;16.30;54.40;;;;;;4991821;28;20037;-67
2021/08/19 09:39:46;;;;;;;0.90;0.60;;;16.40;55.30;;;;;;5006185;28;20070;-68
2021/08/19 09:42:14;;;;;;;1.17;0.43;;;16.50;54.80;;;;;;5010474;28;20099;-67
2021/08/19 09:44:44;;;;;;;1.23;0.45;;;16.70;54.60;;;;;;5002537;28;20466;-68
2021/08/19 09:47:34;;;;;;;1.15;0.50;;;16.90;53.90;;;;;;5007784;28;20443;-66
2021/08/19 09:50:30;;;;;;;2.90;0.57;;;17.10;53.40;;;;;;4991067;28;20022;-67
2021/08/19 09:53:16;;;;;;;3.30;0.70;;;17.10;52.90;;;;;;4996405;28;20038;-67
2021/08/19 09:55:43;;;;;;;3.60;0.80;;;17.30;53.40;;;;;;5006165;28;20079;-67
2021/08/19 09:58:10;;;;;;;2.90;1.17;;;17.30;52.40;;;;;;5010240;28;20022;-68
2021/08/19 10:00:41;;;;;;;4.47;0.90;;;17.30;52.60;;;;;;5005075;28;20101;-66
2021/08/19 10:03:10;;;;;;;4.97;0.90;;;17.40;53.30;;;;;;5009488;28;20029;-67
2021/08/19 10:05:37;;;;;;;3.17;1.35;;;17.40;52.90;;;;;;5004530;28;20037;-68
2021/08/19 10:08:08;;;;;;;5.38;0.50;;;17.40;53.00;;;;;;5007341;28;20021;-68
2021/08/19 10:10:36;;;;;;;1.30;0.57;;;17.40;52.80;;;;;;4988620;28;20134;-65
2021/08/19 10:13:04;;;;;;;2.22;0.70;;;17.50;52.20;;;;;;5013212;28;20038;-68
2021/08/19 10:15:37;;;;;;;1.27;0.50;;;17.50;51.90;;;;;;5025900;28;20025;-65
2021/08/19 10:18:06;;;;;;;1.17;0.75;;;17.60;51.60;;;;;;5029167;28;20508;-68
2021/08/19 10:20:39;;;;;;;1.83;0.60;;;17.60;51.10;;;;;;5034678;28;20036;-66
2021/08/19 10:23:07;;;;;;;2.30;1.40;;;17.70;50.80;;;;;;5004561;28;20101;-67
2021/08/19 10:25:33;;;;;;;3.60;0.30;;;17.70;49.20;;;;;;5028998;28;20128;-66
2021/08/19 10:28:19;;;;;;;3.08;0.47;;;17.70;49.60;;;;;;5011169;28;20029;-66
2021/08/19 10:30:47;;;;;;;1.40;0.47;;;17.70;50.00;;;;;;5032523;28;20013;-67
2021/08/19 10:33:37;;;;;;;2.25;0.63;;;17.70;50.70;;;;;;5038289;28;20079;-71
2021/08/19 10:36:23;;;;;;;3.33;0.47;;;17.80;50.20;;;;;;5017996;28;20072;-67
2021/08/19 10:38:50;;;;;;;1.15;0.57;;;17.90;49.80;;;;;;5018349;28;20030;-66
2021/08/19 10:41:36;;;;;;;4.40;0.70;;;18.00;49.40;;;;;;5032469;28;20024;-66
2021/08/19 10:44:08;;;;;;;2.05;0.60;;;18.20;49.80;;;;;;5017425;28;20033;-67
2021/08/19 10:46:43;;;;;;;8.80;1.40;;;18.30;50.00;;;;;;5027949;28;20030;-67
2021/08/19 10:49:31;;;;;;;1.00;0.83;;;18.40;50.20;;;;;;5031649;28;20384;-69
2021/08/19 10:52:23;;;;;;;3.95;0.70;;;18.50;49.80;;;;;;5027743;28;20049;-69
2021/08/19 10:54:50;;;;;;;2.40;1.00;;;18.60;49.00;;;;;;5031670;28;20024;-66
2021/08/19 10:57:31;;;;;;;3.05;0.80;;;18.70;49.30;;;;;;5026779;28;20052;-68
2021/08/19 11:00:02;;;;;;;2.85;1.38;;;18.70;49.00;;;;;;5024011;28;20034;-69
2021/08/19 11:02:44;;;;;;;2.83;0.98;;;18.80;49.30;;;;;;5028940;28;20025;-69
2021/08/19 11:05:28;;;;;;;2.72;0.70;;;18.90;49.00;;;;;;5030214;28;20079;-67
2021/08/19 11:07:56;;;;;;;1.98;0.70;;;18.90;49.00;;;;;;5027908;28;20040;-67
2021/08/19 11:10:28;;;;;;;2.67;0.60;;;19.00;49.00;;;;;;5027787;28;20072;-67
2021/08/19 11:13:05;;;;;;;2.47;0.77;;;19.10;48.30;;;;;;5025059;28;20046;-68
2021/08/19 11:15:33;;;;;;;3.10;0.68;;;19.20;48.50;;;;;;5025823;28;20040;-68
2021/08/19 11:18:00;;;;;;;3.50;1.15;;;19.20;48.20;;;;;;5029819;28;20014;-69
2021/08/19 11:20:30;;;;;;;0.80;0.40;;;19.30;47.70;;;;;;5011407;28;20025;-68
2021/08/19 11:23:11;;;;;;;3.15;0.60;;;19.40;47.50;;;;;;5027872;28;20076;-68
2021/08/19 11:25:40;;;;;;;4.13;1.48;;;19.40;47.50;;;;;;5031937;28;20048;-68
2021/08/19 11:28:18;;;;;;;2.45;1.05;;;19.50;48.80;;;;;;5025684;28;20630;-66
2021/08/19 11:30:49;;;;;;;2.78;0.90;;;19.50;51.10;;;;;;5028556;28;20053;-69
2021/08/19 11:33:19;;;;;;;2.20;1.10;;;19.50;51.70;;;;;;5029670;28;20103;-69
2021/08/19 11:35:47;;;;;;;4.25;0.85;;;19.50;52.50;;;;;;5032606;28;20017;-67
2021/08/19 11:38:15;;;;;;;3.88;1.00;;;19.60;52.00;;;;;;5028002;28;20101;-69
2021/08/19 11:40:44;;;;;;;6.32;1.48;;;19.70;51.90;;;;;;5025740;28;20060;-66
2021/08/19 11:43:31;;;;;;;3.15;1.10;;;19.70;52.90;;;;;;5028880;28;20045;-66
2021/08/19 11:46:09;;;;;;;1.40;0.85;;;19.80;53.20;;;;;;5028263;28;20111;-67
2021/08/19 11:48:38;;;;;;;2.97;1.13;;;19.80;53.10;;;;;;5029208;28;20491;-69
2021/08/19 11:51:06;;;;;;;6.07;0.90;;;19.80;53.70;;;;;;5031522;28;20062;-66
2021/08/19 11:53:32;;;;;;;3.55;0.98;;;19.80;53.60;;;;;;5006174;28;20028;-69
2021/08/19 11:56:15;;;;;;;8.43;1.30;;;19.70;53.80;;;;;;5028202;28;20017;-68
2021/08/19 11:58:41;;;;;;;3.13;0.70;;;19.80;54.50;;;;;;5025099;28;20047;-65
2021/08/19 12:01:10;;;;;;;4.80;1.20;;;19.90;54.40;;;;;;5022275;28;20063;-66
2021/08/19 12:03:42;;;;;;;2.50;0.88;;;19.90;54.10;;;;;;5029570;28;20045;-67
2021/08/19 12:06:14;;;;;;;4.57;0.90;;;20.00;54.40;;;;;;5031106;28;20066;-65
2021/08/19 12:08:58;;;;;;;5.65;1.10;;;20.10;53.30;;;;;;5026790;28;20018;-65
2021/08/19 12:11:30;;;;;;;5.50;0.98;;;20.10;53.20;;;;;;5012863;28;20029;-66
2021/08/19 12:13:58;;;;;;;4.32;1.05;;;20.10;53.60;;;;;;5026323;28;20033;-67
2021/08/19 12:16:27;;;;;;;3.03;0.90;;;20.10;53.80;;;;;;5026757;28;20101;-65
2021/08/19 12:19:10;;;;;;;6.22;1.30;;;20.10;54.20;;;;;;5004161;28;20026;-65
2021/08/19 12:21:38;;;;;;;3.35;1.10;;;20.20;53.50;;;;;;5030476;28;20108;-66
2021/08/19 12:24:18;;;;;;;3.40;1.20;;;20.20;53.80;;;;;;5034892;28;20032;-66
2021/08/19 12:27:16;;;;;;;4.15;1.30;;;20.20;54.80;;;;;;5025593;28;20477;-66
2021/08/19 12:29:49;;;;;;;3.70;1.33;;;20.30;55.10;;;;;;5030325;28;20060;-66
2021/08/19 12:32:30;;;;;;;3.47;0.93;;;20.30;54.80;;;;;;5032471;28;20577;-69
2021/08/19 12:35:07;;;;;;;3.40;1.00;;;20.30;54.30;;;;;;5025228;28;20030;-66
2021/08/19 12:37:36;;;;;;;4.93;1.30;;;20.40;55.70;;;;;;5025865;28;20032;-68
2021/08/19 12:40:13;;;;;;;6.40;1.15;;;20.40;55.00;;;;;;5029044;28;20022;-69
2021/08/19 12:42:41;;;;;;;2.08;0.80;;;20.30;54.50;;;;;;5030252;28;20030;-66
2021/08/19 12:45:16;;;;;;;7.07;1.17;;;20.30;54.60;;;;;;5012559;28;20032;-65
2021/08/19 12:47:48;;;;;;;3.72;1.55;;;20.20;54.80;;;;;;5030838;28;20061;-67
2021/08/19 12:50:20;;;;;;;4.30;1.00;;;20.20;54.90;;;;;;5015452;28;20030;-69
2021/08/19 12:52:47;;;;;;;10.30;1.55;;;20.20;54.60;;;;;;5034328;28;20024;-68
2021/08/19 12:55:23;;;;;;;3.58;1.15;;;20.20;54.40;;;;;;5035401;28;20025;-68
2021/08/19 12:57:50;;;;;;;2.30;0.65;;;20.20;54.00;;;;;;5035287;28;20029;-67
2021/08/19 13:00:18;;;;;;;3.58;1.00;;;20.30;53.80;;;;;;5027916;28;20025;-66
2021/08/19 13:02:46;;;;;;;4.68;1.13;;;20.20;54.20;;;;;;5029658;28;20485;-66
2021/08/19 13:05:16;;;;;;;5.07;1.20;;;20.20;53.90;;;;;;5029958;28;20036;-68
2021/08/19 13:07:49;;;;;;;3.35;1.00;;;20.20;54.10;;;;;;5031434;28;20037;-67
2021/08/19 13:10:17;;;;;;;10.68;1.88;;;20.20;54.60;;;;;;5027720;28;20437;-68
2021/08/19 13:12:44;;;;;;;5.15;1.08;;;20.20;54.50;;;;;;5032311;28;20017;-68
2021/08/19 13:15:15;;;;;;;4.18;0.95;;;20.10;54.40;;;;;;5035721;28;20064;-66
2021/08/19 13:17:42;;;;;;;4.75;0.90;;;20.00;54.50;;;;;;5032270;28;20022;-66
2021/08/19 13:20:10;;;;;;;4.22;0.95;;;20.00;54.50;;;;;;5032339;28;20498;-66
2021/08/19 13:22:36;;;;;;;3.85;0.88;;;20.00;54.60;;;;;;5031592;28;20022;-67
2021/08/19 13:25:04;;;;;;;3.40;2.10;;;20.10;54.90;;;;;;5026704;28;20064;-67
2021/08/19 13:27:31;;;;;;;3.58;1.20;;;20.10;54.70;;;;;;5029681;28;20026;-65
2021/08/19 13:29:57;;;;;;;5.30;1.10;;;20.00;54.00;;;;;;5032504;28;20033;-67
2021/08/19 13:32:25;;;;;;;3.78;1.90;;;19.90;54.90;;;;;;5027036;28;20033;-65
2021/08/19 13:34:53;;;;;;;3.17;1.10;;;19.90;55.30;;;;;;5030131;28;20504;-66
2021/08/19 13:37:19;;;;;;;5.55;0.90;;;19.90;55.70;;;;;;5033979;28;21070;-67
2021/08/19 13:39:47;;;;;;;3.55;1.55;;;20.00;55.90;;;;;;5033499;28;20025;-65
2021/08/19 13:42:13;;;;;;;8.63;1.23;;;20.00;55.70;;;;;;5027767;28;20464;-65
2021/08/19 13:44:40;;;;;;;5.00;1.23;;;20.00;55.80;;;;;;5035213;28;20518;-66
2021/08/19 13:47:08;;;;;;;6.20;1.23;;;20.10;56.00;;;;;;5039086;28;20037;-66
2021/08/19 13:49:36;;;;;;;2.78;1.15;;;20.00;56.10;;;;;;5028961;28;20029;-66
2021/08/19 13:52:04;;;;;;;4.82;1.77;;;19.90;55.30;;;;;;5027246;28;20396;-67
2021/08/19 13:54:30;;;;;;;5.63;1.45;;;19.80;55.60;;;;;;5032532;28;20030;-65
2021/08/19 13:56:58;;;;;;;3.70;1.08;;;19.80;56.20;;;;;;5030278;28;20381;-65
2021/08/19 13:59:25;;;;;;;5.22;1.40;;;19.70;56.20;;;;;;5022464;28;20120;-65
2021/08/19 14:01:52;;;;;;;4.53;1.08;;;19.70;56.30;;;;;;5029055;28;20020;-71
2021/08/19 14:04:18;;;;;;;3.70;1.92;;;19.60;56.20;;;;;;5025890;28;20077;-69
2021/08/19 14:06:45;;;;;;;4.85;0.98;;;19.60;56.50;;;;;;5032564;28;20029;-67
2021/08/19 14:09:12;;;;;;;2.08;0.80;;;19.60;56.30;;;;;;5028994;28;20033;-64
2021/08/19 14:11:38;;;;;;;2.65;1.20;;;19.60;56.80;;;;;;5029344;28;20458;-67
2021/08/19 14:14:05;;;;;;;7.22;1.98;;;19.60;57.00;;;;;;5028378;28;20038;-67
2021/08/19 14:16:31;;;;;;;7.65;1.55;;;19.60;57.50;;;;;;5026874;28;20076;-69
2021/08/19 14:18:58;;;;;;;8.27;1.15;;;19.60;57.50;;;;;;5039540;28;20523;-66
2021/08/19 14:21:24;;;;;;;5.50;2.90;;;19.60;57.00;;;;;;5026374;28;20412;-64
2021/08/19 14:24:33;;;;;;;4.90;1.20;;;19.60;57.30;;;;;;5032993;28;20005;-69
2021/08/19 14:27:39;;;;;;;3.10;1.58;;;19.50;57.20;;;;;;5021945;28;20048;-64
2021/08/19 14:30:45;;;;;;;3.53;0.88;;;19.50;57.80;;;;;;5031425;28;20021;-65
2021/08/19 14:33:34;;;;;;;12.25;7.25;;;19.40;57.50;;;;;;5028070;28;20018;-69
2021/08/19 14:36:02;;;;;;;12.57;5.82;;;19.30;58.20;;;;;;5029300;28;20034;-69
2021/08/19 14:38:34;;;;;;;8.18;1.92;;;19.30;59.90;;;;;;5031877;28;20026;-66
2021/08/19 14:41:04;;;;;;;6.10;1.00;;;19.30;59.30;;;;;;5032612;28;20071;-68
2021/08/19 14:43:32;;;;;;;10.90;1.08;;;19.20;58.60;;;;;;5030797;28;20159;-70
2021/08/19 14:46:00;;;;;;;5.18;0.88;;;19.20;58.40;;;;;;5024623;28;20105;-66
2021/08/19 14:48:31;;;;;;;3.08;1.02;;;19.10;58.40;;;;;;4999697;28;20029;-70
2021/08/19 14:51:07;;;;;;;1.48;0.80;;;19.00;58.40;;;;;;5028807;28;20033;-64
2021/08/19 14:53:34;;;;;;;2.33;0.70;;;18.90;58.00;;;;;;5027523;28;20030;-64
2021/08/19 14:56:01;;;;;;;6.43;1.25;;;18.80;58.40;;;;;;5026830;28;20130;-66
2021/08/19 14:58:28;;;;;;;2.75;0.70;;;18.80;58.80;;;;;;5030166;28;20054;-69
2021/08/19 15:00:54;;;;;;;1.25;0.70;;;18.70;59.10;;;;;;5010948;28;20497;-69
2021/08/19 15:03:21;;;;;;;2.83;1.33;;;18.60;59.70;;;;;;5033200;28;20013;-66
2021/08/19 15:05:47;;;;;;;5.93;1.58;;;18.50;59.90;;;;;;5037916;28;20025;-65
2021/08/19 15:08:14;;;;;;;5.40;0.90;;;18.50;60.70;;;;;;5025531;28;20486;-62
2021/08/19 15:10:40;;;;;;;3.25;1.30;;;18.50;61.00;;;;;;5026758;28;20104;-62
2021/08/19 15:13:07;;;;;;;3.95;1.08;;;18.40;61.20;;;;;;5034445;28;20083;-64
2021/08/19 15:15:34;;;;;;;3.95;1.30;;;18.40;61.70;;;;;;5025265;28;20030;-65
2021/08/19 15:18:02;;;;;;;4.68;1.20;;;18.40;61.80;;;;;;5027016;28;20044;-63
2021/08/19 15:20:30;;;;;;;3.55;1.00;;;18.40;62.40;;;;;;5027013;28;20021;-63
2021/08/19 15:22:58;;;;;;;2.28;0.77;;;18.40;62.30;;;;;;5023607;28;20027;-61
2021/08/19 15:25:24;;;;;;;42.05;32.30;;;18.30;62.30;;;;;;5028172;28;20022;-65
2021/08/19 15:27:51;;;;;;;57.00;42.80;;;18.20;62.60;;;;;;5034821;28;20039;-63
2021/08/19 15:30:46;;;;;;;6.88;5.35;;;18.20;63.30;;;;;;5023076;28;20030;-63
2021/08/19 15:33:12;;;;;;;17.00;2.60;;;18.10;62.70;;;;;;5002820;28;20025;-62
2021/08/19 15:35:39;;;;;;;16.75;2.45;;;18.10;63.10;;;;;;5026667;28;20032;-65
2021/08/19 15:38:05;;;;;;;7.18;1.90;;;18.10;62.70;;;;;;5024946;28;20024;-66
2021/08/19 15:40:32;;;;;;;5.10;1.63;;;18.00;63.10;;;;;;5025361;28;20029;-72
2021/08/19 15:42:58;;;;;;;4.45;1.88;;;18.00;63.00;;;;;;5025685;28;20582;-67
2021/08/19 15:45:25;;;;;;;5.68;1.45;;;18.00;62.90;;;;;;5018859;28;20029;-70
2021/08/19 15:47:52;;;;;;;3.63;1.48;;;17.90;62.40;;;;;;5015776;28;20040;-70
2021/08/19 15:50:19;;;;;;;1.38;1.08;;;17.80;62.30;;;;;;5018968;28;20016;-67
2021/08/19 15:52:46;;;;;;;4.40;1.45;;;17.80;62.70;;;;;;5030751;28;20033;-69
2021/08/19 15:55:12;;;;;;;3.88;2.17;;;17.70;62.90;;;;;;5024158;28;20375;-66
2021/08/19 15:57:40;;;;;;;8.98;1.27;;;17.70;63.30;;;;;;5023271;28;20101;-67
2021/08/19 16:00:07;;;;;;;6.45;1.30;;;17.60;62.90;;;;;;5025660;28;20028;-66
2021/08/19 16:02:34;;;;;;;4.45;1.25;;;17.50;63.10;;;;;;5021623;28;20771;-70
2021/08/19 16:05:00;;;;;;;13.50;2.55;;;17.40;63.30;;;;;;5021798;28;20092;-69
2021/08/19 16:07:28;;;;;;;7.50;1.70;;;17.50;63.70;;;;;;5022974;28;20029;-68
2021/08/19 16:09:55;;;;;;;4.10;1.05;;;17.40;64.00;;;;;;5026476;28;20071;-71
2021/08/19 16:12:21;;;;;;;3.85;1.38;;;17.40;64.70;;;;;;5016873;28;20010;-69
2021/08/19 16:14:49;;;;;;;23.83;17.05;;;17.40;64.50;;;;;;5020198;28;20094;-67
2021/08/19 16:17:55;;;;;;;12.32;7.07;;;17.40;64.50;;;;;;5021362;28;20468;-69
2021/08/19 16:21:05;;;;;;;27.30;18.20;;;17.30;64.40;;;;;;5015023;28;20055;-68
2021/08/19 16:23:40;;;;;;;4.15;2.47;;;17.30;64.60;;;;;;5012626;28;20026;-73
2021/08/19 16:26:10;;;;;;;3.22;1.70;;;17.30;64.90;;;;;;5016832;28;22012;-74
2021/08/19 16:29:00;;;;;;;5.78;1.98;;;17.20;64.70;;;;;;5024308;28;20029;-70
2021/08/19 16:31:37;;;;;;;2.85;1.35;;;17.20;64.90;;;;;;5020349;28;20400;-72
2021/08/19 16:34:42;;;;;;;6.45;2.75;;;17.20;65.10;;;;;;5022130;28;20473;-72
2021/08/19 16:37:12;;;;;;;3.80;1.77;;;17.10;65.40;;;;;;5023156;28;20056;-71
2021/08/19 16:39:40;;;;;;;6.30;1.83;;;17.10;65.60;;;;;;4981688;28;20063;-73
2021/08/19 16:42:09;;;;;;;25.27;19.80;;;17.00;65.80;;;;;;5006374;28;20129;-72
2021/08/19 16:44:46;;;;;;;38.78;28.98;;;17.00;66.70;;;;;;5030720;28;20076;-72
2021/08/19 16:47:14;;;;;;;11.93;5.82;;;16.90;66.50;;;;;;5030303;28;20030;-74
2021/08/19 16:49:44;;;;;;;6.55;3.15;;;16.90;66.70;;;;;;5026483;28;20045;-74
2021/08/19 16:52:18;;;;;;;6.40;3.08;;;16.90;66.80;;;;;;5025799;28;20862;-73
2021/08/19 16:55:08;;;;;;;7.00;2.92;;;16.90;66.60;;;;;;5009947;28;20484;-73
2021/08/19 16:57:41;;;;;;;5.40;3.08;;;16.80;67.00;;;;;;5008200;28;20490;-75
2021/08/19 17:00:09;;;;;;;8.18;2.63;;;16.80;67.30;;;;;;5248096;23;20131;-72
2021/08/19 17:02:36;;;;;;;8.35;2.72;;;16.80;68.00;;;;;;5000786;28;20479;-69
2021/08/19 17:05:03;;;;;;;13.13;3.42;;;16.80;67.40;;;;;;4986784;28;20021;-68
2021/08/19 17:07:30;;;;;;;6.57;2.63;;;16.70;67.30;;;;;;5007513;28;20041;-69
2021/08/19 17:09:57;;;;;;;6.43;2.85;;;16.70;67.20;;;;;;5008972;28;20045;-69
2021/08/19 17:12:23;;;;;;;17.05;13.50;;;16.60;67.50;;;;;;5010639;28;20029;-69
2021/08/19 17:14:50;;;;;;;8.10;4.60;;;16.70;67.90;;;;;;5011937;28;20065;-72
2021/08/19 17:17:21;;;;;;;7.80;2.60;;;16.60;67.70;;;;;;5007979;28;20029;-74
2021/08/19 17:19:52;;;;;;;2.97;2.10;;;16.60;68.00;;;;;;5010406;28;20108;-71
2021/08/19 17:22:38;;;;;;;4.40;2.10;;;16.60;68.00;;;;;;5005350;28;20033;-74
2021/08/19 17:25:12;;;;;;;7.35;3.00;;;16.60;68.30;;;;;;5002306;28;20029;-67
2021/08/19 17:27:48;;;;;;;4.75;1.77;;;16.60;68.70;;;;;;4994131;28;20048;-68
2021/08/19 17:30:37;;;;;;;9.50;2.72;;;16.50;68.70;;;;;;4987805;28;20066;-68
2021/08/19 17:33:50;;;;;;;3.05;2.05;;;16.50;68.70;;;;;;5002786;28;20036;-70
2021/08/19 17:37:02;;;;;;;5.38;2.47;;;16.50;69.00;;;;;;5006350;28;20025;-69
2021/08/19 17:39:40;;;;;;;6.10;2.67;;;16.50;69.20;;;;;;5000170;28;20092;-71
2021/08/19 17:42:48;;;;;;;87.60;67.22;;;16.40;69.50;;;;;;5000185;28;20053;-67
2021/08/19 17:46:02;;;;;;;18.13;11.45;;;16.50;70.40;;;;;;5005616;28;20037;-70
2021/08/19 17:49:11;;;;;;;6.07;2.60;;;16.50;70.10;;;;;;5005109;28;20065;-72
2021/08/19 17:52:27;;;;;;;7.07;2.13;;;16.40;69.50;;;;;;5004784;28;20037;-71
2021/08/19 17:54:57;;;;;;;6.18;2.67;;;16.40;69.50;;;;;;4998399;28;20038;-68
2021/08/19 17:57:35;;;;;;;4.72;1.77;;;16.30;69.80;;;;;;4985717;28;20484;-69
2021/08/19 18:00:10;;;;;;;4.25;2.47;;;16.30;70.00;;;;;;4995409;28;20045;-69
2021/08/19 18:02:49;;;;;;;4.57;2.67;;;16.30;70.10;;;;;;4956870;28;20031;-68
2021/08/19 18:05:23;;;;;;;3.75;2.00;;;16.20;70.40;;;;;;4974842;28;20035;-71
2021/08/19 18:07:57;;;;;;;7.43;2.50;;;16.20;70.50;;;;;;4977199;28;20035;-69
2021/08/19 18:10:43;;;;;;;4.60;2.47;;;16.20;70.60;;;;;;4974973;28;20493;-71
2021/08/19 18:13:32;;;;;;;3.70;1.77;;;16.20;70.70;;;;;;4974436;28;20049;-73
2021/08/19 18:16:00;;;;;;;4.07;2.30;;;16.20;70.70;;;;;;4960066;28;20023;-70
2021/08/19 18:18:59;;;;;;;5.45;2.05;;;16.20;70.80;;;;;;4977807;28;20048;-67
2021/08/19 18:21:53;;;;;;;6.75;2.55;;;16.20;70.90;;;;;;4971018;28;20050;-68
2021/08/19 18:24:21;;;;;;;5.82;2.92;;;16.10;70.80;;;;;;4974827;28;20026;-71
2021/08/19 18:26:54;;;;;;;8.50;3.35;;;16.10;70.70;;;;;;4961202;28;20038;-70
2021/08/19 18:29:23;;;;;;;37.25;25.30;;;16.10;70.50;;;;;;4975599;28;20018;-71
2021/08/19 18:31:54;;;;;;;20.67;12.95;;;16.10;70.80;;;;;;4977483;28;20034;-70
2021/08/19 18:34:26;;;;;;;5.95;3.13;;;16.20;70.70;;;;;;4958135;28;20031;-72
2021/08/19 18:36:56;;;;;;;6.00;2.10;;;16.20;70.20;;;;;;4974689;28;20055;-70
2021/08/19 18:39:24;;;;;;;11.63;2.92;;;16.10;69.70;;;;;;4960003;28;20461;-72
2021/08/19 18:41:56;;;;;;;6.95;3.42;;;16.10;69.50;;;;;;4961071;28;20184;-70
2021/08/19 18:44:45;;;;;;;7.68;2.63;;;16.00;69.50;;;;;;4972962;28;20149;-69
2021/08/19 18:47:12;;;;;;;12.77;2.97;;;16.00;69.50;;;;;;4973244;28;20122;-71
2021/08/19 18:49:44;;;;;;;5.43;2.70;;;15.90;69.60;;;;;;4975300;28;20030;-70
2021/08/19 18:52:14;;;;;;;5.90;2.97;;;15.90;69.80;;;;;;4970476;28;20039;-69
2021/08/19 18:54:44;;;;;;;6.25;2.60;;;15.80;70.10;;;;;;4977647;28;20121;-70
2021/08/19 18:57:24;;;;;;;8.13;3.25;;;15.80;70.10;;;;;;4926344;28;20481;-67
2021/08/19 18:59:54;;;;;;;4.53;3.05;;;15.80;70.30;;;;;;4976470;28;20507;-72
2021/08/19 19:02:30;;;;;;;12.50;3.83;;;15.70;70.40;;;;;;4997664;28;20037;-72
2021/08/19 19:04:57;;;;;;;34.63;23.80;;;15.80;70.60;;;;;;4995990;28;20026;-72
2021/08/19 19:07:23;;;;;;;31.23;20.67;;;15.70;70.80;;;;;;4995395;28;20392;-73
2021/08/19 19:10:00;;;;;;;12.05;6.35;;;15.70;70.80;;;;;;5001975;28;20419;-70
2021/08/19 19:12:41;;;;;;;;;;;;;;;;;;;;;
2021/08/19 19:15:14;;;;;;;11.68;5.38;;;15.70;70.60;;;;;;4999741;28;20022;-72
2021/08/19 19:18:02;;;;;;;9.98;5.15;;;15.60;70.70;;;;;;4976833;28;20149;-73
2021/08/19 19:20:31;;;;;;;7.60;4.55;;;15.50;71.00;;;;;;4976084;28;20101;-70
2021/08/19 19:23:02;;;;;;;12.77;4.55;;;15.50;71.40;;;;;;4993864;28;20027;-73
2021/08/19 19:25:30;;;;;;;8.93;4.35;;;15.40;71.60;;;;;;4984767;28;20065;-73
2021/08/19 19:27:57;;;;;;;7.43;3.65;;;15.40;71.60;;;;;;4979359;28;20042;-73
2021/08/19 19:30:25;;;;;;;9.77;3.75;;;15.40;71.40;;;;;;4996276;28;20026;-73
2021/08/19 19:32:51;;;;;;;4.63;2.83;;;15.40;71.20;;;;;;4996658;28;20076;-73
2021/08/19 19:35:19;;;;;;;8.63;2.70;;;15.40;71.10;;;;;;4996182;28;20033;-72
2021/08/19 19:37:49;;;;;;;6.03;2.25;;;15.40;70.70;;;;;;4994010;28;20018;-70
2021/08/19 19:40:19;;;;;;;6.10;2.28;;;15.40;70.40;;;;;;4994611;28;20038;-72
2021/08/19 19:43:25;;;;;;;9.13;2.58;;;15.40;70.40;;;;;;4995898;28;20014;-70
2021/08/19 19:46:00;;;;;;;4.97;2.88;;;15.40;70.30;;;;;;5002845;28;20045;-70
2021/08/19 19:48:28;;;;;;;3.03;2.05;;;15.40;70.40;;;;;;4997837;28;20041;-69
2021/08/19 19:51:01;;;;;;;5.50;2.70;;;15.40;70.30;;;;;;4998849;28;20113;-69
2021/08/19 19:53:31;;;;;;;4.55;2.67;;;15.30;70.20;;;;;;5003912;28;20157;-71
2021/08/19 19:55:58;;;;;;;6.70;2.45;;;15.30;70.30;;;;;;4977091;28;20026;-69
2021/08/19 19:58:26;;;;;;;6.32;2.42;;;15.30;70.10;;;;;;5001219;28;20547;-69
2021/08/19 20:00:54;;;;;;;2.72;1.70;;;15.30;70.50;;;;;;4997635;28;20165;-68
2021/08/19 20:03:24;;;;;;;3.13;2.15;;;15.20;69.70;;;;;;4998424;28;20022;-72
2021/08/19 20:05:57;;;;;;;5.43;2.58;;;15.30;69.60;;;;;;4999711;28;20030;-72
2021/08/19 20:08:27;;;;;;;3.42;1.77;;;15.20;69.30;;;;;;5002235;28;20025;-72
2021/08/19 20:10:59;;;;;;;5.45;1.95;;;15.30;69.30;;;;;;4999999;28;20018;-70
2021/08/19 20:13:32;;;;;;;8.32;2.67;;;15.20;69.10;;;;;;5001447;28;20078;-73
2021/08/19 20:16:08;;;;;;;5.10;2.33;;;15.20;69.20;;;;;;5002642;28;20065;-68
2021/08/19 20:18:35;;;;;;;6.95;2.00;;;15.20;69.20;;;;;;4998602;28;21052;-73
2021/08/19 20:21:08;;;;;;;3.58;1.92;;;15.20;69.20;;;;;;5003053;28;20022;-73
2021/08/19 20:23:35;;;;;;;5.72;2.50;;;15.10;69.30;;;;;;5002253;28;20073;-69
2021/08/19 20:26:03;;;;;;;6.07;2.45;;;15.20;69.30;;;;;;4998725;28;20050;-72
2021/08/19 20:28:31;;;;;;;14.10;3.17;;;15.10;69.40;;;;;;5005653;28;20431;-69
2021/08/19 20:31:03;;;;;;;3.67;2.20;;;15.10;69.50;;;;;;5000793;28;20030;-71
2021/08/19 20:33:30;;;;;;;6.97;1.42;;;15.10;69.50;;;;;;5001946;28;20109;-74
2021/08/19 20:35:56;;;;;;;5.97;1.60;;;15.10;69.70;;;;;;5000324;28;20070;-74
2021/08/19 20:38:24;;;;;;;3.95;1.95;;;15.10;69.80;;;;;;5003581;28;20488;-74
2021/08/19 20:40:58;;;;;;;6.28;1.75;;;15.00;69.70;;;;;;5004963;28;20025;-74
2021/08/19 20:43:33;;;;;;;5.40;2.00;;;15.00;69.60;;;;;;5001883;28;20586;-72
2021/08/19 20:46:23;;;;;;;5.00;1.70;;;15.00;69.40;;;;;;5005145;28;20026;-74
2021/08/19 20:48:56;;;;;;;5.45;2.50;;;15.00;69.40;;;;;;4999029;28;20120;-72
2021/08/19 20:51:26;;;;;;;16.08;3.28;;;15.00;69.20;;;;;;4983642;28;20030;-73
2021/08/19 20:53:57;;;;;;;7.47;2.80;;;15.00;69.00;;;;;;4982699;28;20033;-72
2021/08/19 20:56:23;;;;;;;5.80;2.83;;;14.90;68.70;;;;;;5005663;28;20010;-68
2021/08/19 20:58:53;;;;;;;7.90;3.45;;;14.90;68.60;;;;;;5001045;28;20058;-72
2021/08/19 21:01:25;;;;;;;3.58;2.15;;;14.90;68.60;;;;;;4983257;28;20511;-73
2021/08/19 21:03:58;;;;;;;6.75;2.40;;;14.90;68.50;;;;;;5002156;28;20093;-73
2021/08/19 21:06:40;;;;;;;7.43;1.77;;;14.90;68.40;;;;;;5002656;28;20041;-73
2021/08/19 21:09:26;;;;;;;4.10;1.70;;;14.80;68.30;;;;;;4999437;28;20057;-71
2021/08/19 21:12:00;;;;;;;11.15;4.20;;;14.80;68.20;;;;;;5002775;28;20034;-72
2021/08/19 21:14:39;;;;;;;5.22;3.42;;;14.80;68.00;;;;;;5004186;28;20042;-73
2021/08/19 21:17:10;;;;;;;9.23;4.35;;;14.80;68.50;;;;;;5008057;28;20034;-72
2021/08/19 21:20:05;;;;;;;9.18;4.15;;;14.70;68.80;;;;;;4986792;28;20026;-72
2021/08/19 21:22:32;;;;;;;9.32;5.80;;;14.60;69.10;;;;;;5004813;28;20098;-71
2021/08/19 21:25:01;;;;;;;12.77;6.70;;;14.50;69.10;;;;;;5002811;28;20029;-71
2021/08/19 21:28:02;;;;;;;12.32;6.00;;;14.50;69.10;;;;;;5006607;28;20026;-72
2021/08/19 21:30:31;;;;;;;8.15;4.00;;;14.40;69.20;;;;;;5003833;28;20786;-72
2021/08/19 21:33:02;;;;;;;6.22;3.00;;;14.30;69.30;;;;;;5002671;28;20070;-72
2021/08/19 21:35:32;;;;;;;7.57;2.90;;;14.30;69.30;;;;;;5005201;28;20491;-73
2021/08/19 21:38:11;;;;;;;7.90;3.17;;;14.40;69.40;;;;;;5006155;28;20036;-73
2021/08/19 21:40:44;;;;;;;3.80;1.30;;;14.40;69.60;;;;;;5002585;28;20022;-72
2021/08/19 21:43:50;;;;;;;5.80;1.13;;;14.40;70.00;;;;;;5008504;28;20390;-72
2021/08/19 21:46:18;;;;;;;4.35;1.65;;;14.40;69.20;;;;;;5010535;28;20046;-69
2021/08/19 21:48:46;;;;;;;5.35;1.00;;;14.40;69.20;;;;;;5009440;28;20018;-69
2021/08/19 21:51:14;;;;;;;3.03;1.45;;;14.50;69.20;;;;;;5012045;28;20018;-68
2021/08/19 21:53:54;;;;;;;3.83;0.80;;;14.40;69.10;;;;;;5006026;28;20018;-71
2021/08/19 21:56:23;;;;;;;3.00;1.02;;;14.50;69.00;;;;;;5010831;28;20139;-71
2021/08/19 21:59:02;;;;;;;3.83;0.70;;;14.50;69.10;;;;;;5007549;28;20022;-73
2021/08/19 22:01:32;;;;;;;1.98;0.85;;;14.40;69.10;;;;;;4996284;28;20057;-71
2021/08/19 22:04:39;;;;;;;4.53;2.67;;;14.40;69.20;;;;;;4987217;28;20023;-70
2021/08/19 22:07:06;;;;;;;;;;;14.40;69.20;;;;;;4986760;28;20026;-71
2021/08/19 22:09:36;;;;;;;4.80;1.63;;;14.30;69.40;;;;;;4988098;28;20009;-73
2021/08/19 22:12:06;;;;;;;5.93;1.80;;;14.30;69.60;;;;;;4987659;28;20031;-72
2021/08/19 22:14:38;;;;;;;6.28;1.80;;;14.30;69.90;;;;;;4977164;28;20038;-73
2021/08/19 22:17:06;;;;;;;1.52;1.23;;;14.20;69.90;;;;;;4986658;28;20762;-73
2021/08/19 22:19:56;;;;;;;5.53;1.40;;;14.20;70.10;;;;;;4987929;28;20065;-67
2021/08/19 22:22:23;;;;;;;2.97;1.45;;;14.10;70.30;;;;;;4985633;28;20037;-66
2021/08/19 22:24:49;;;;;;;2.72;0.93;;;14.10;70.40;;;;;;4986980;28;20015;-68
2021/08/19 22:27:16;;;;;;;6.75;2.55;;;14.00;70.30;;;;;;4986262;28;20030;-71
2021/08/19 22:29:48;;;;;;;3.92;1.20;;;14.00;70.60;;;;;;4987852;28;20020;-71
2021/08/19 22:32:22;;;;;;;9.38;1.88;;;14.00;70.80;;;;;;4988139;28;20037;-71